sensor_id;sensor_type;location;lat;lon;timestamp;temperature;humidity
33699;DHT22;20032;52.436;13.312;2024-03-22T00:01:54;8.50;99.90
33699;DHT22;20032;52.436;13.312;2024-03-22T00:04:21;8.50;99.90
33699;DHT22;20032;52.436;13.312;2024-03-22T00:06:48;8.50;99.90
33699;DHT22;20032;52.436;13.312;2024-03-22T00:09:15;8.60;99.90
33699;DHT22;20032;52.436;13.312;2024-03-22T00:11:41;8.60;99.90
33699;DHT22;20032;52.436;13.312;2024-03-22T00:14:07;8.40;99.90
33699;DHT22;20032;52.436;13.312;2024-03-22T00:16:33;8.50;99.90
33699;DHT22;20032;52.436;13.312;2024-03-22T00:18:58;8.60;99.90
33699;DHT22;20032;52.436;13.312;2024-03-22T00:21:24;8.60;99.90
33699;DHT22;20032;52.436;13.312;2024-03-22T00:23:52;8.50;99.90
33699;DHT22;20032;52.436;13.312;2024-03-22T00:26:17;8.40;99.90
33699;DHT22;20032;52.436;13.312;2024-03-22T00:28:43;8.30;99.90
33699;DHT22;20032;52.436;13.312;2024-03-22T00:31:09;8.30;99.90
33699;DHT22;20032;52.436;13.312;2024-03-22T00:33:34;8.30;99.90
33699;DHT22;20032;52.436;13.312;2024-03-22T00:36:00;8.30;99.90
33699;DHT22;20032;52.436;13.312;2024-03-22T00:38:25;8.30;99.90
33699;DHT22;20032;52.436;13.312;2024-03-22T00:40:51;8.30;99.90
33699;DHT22;20032;52.436;13.312;2024-03-22T00:43:16;8.40;99.90
33699;DHT22;20032;52.436;13.312;2024-03-22T00:45:42;8.40;99.90
33699;DHT22;20032;52.436;13.312;2024-03-22T00:48:07;8.30;99.90
33699;DHT22;20032;52.436;13.312;2024-03-22T00:50:33;8.30;99.90
33699;DHT22;20032;52.436;13.312;2024-03-22T00:52:58;8.40;99.90
33699;DHT22;20032;52.436;13.312;2024-03-22T00:55:24;8.40;99.90
33699;DHT22;20032;52.436;13.312;2024-03-22T00:57:50;8.30;99.90
33699;DHT22;20032;52.436;13.312;2024-03-22T01:00:16;8.30;99.90
33699;DHT22;20032;52.436;13.312;2024-03-22T01:02:44;8.30;99.90
33699;DHT22;20032;52.436;13.312;2024-03-22T01:05:10;8.20;99.90
33699;DHT22;20032;52.436;13.312;2024-03-22T01:07:36;8.10;99.90
33699;DHT22;20032;52.436;13.312;2024-03-22T01:10:03;8.10;99.90
33699;DHT22;20032;52.436;13.312;2024-03-22T01:12:29;8.30;99.90
33699;DHT22;20032;52.436;13.312;2024-03-22T01:14:55;8.20;99.90
33699;DHT22;20032;52.436;13.312;2024-03-22T01:17:20;8.20;99.90
33699;DHT22;20032;52.436;13.312;2024-03-22T01:19:46;8.20;99.90
33699;DHT22;20032;52.436;13.312;2024-03-22T01:22:11;8.20;99.90
33699;DHT22;20032;52.436;13.312;2024-03-22T01:24:37;8.10;99.90
33699;DHT22;20032;52.436;13.312;2024-03-22T01:27:03;8.10;99.90
33699;DHT22;20032;52.436;13.312;2024-03-22T01:29:29;8.10;99.90
33699;DHT22;20032;52.436;13.312;2024-03-22T01:31:58;8.00;99.90
33699;DHT22;20032;52.436;13.312;2024-03-22T01:34:24;8.20;99.90
33699;DHT22;20032;52.436;13.312;2024-03-22T01:36:50;8.10;99.90
33699;DHT22;20032;52.436;13.312;2024-03-22T01:39:16;8.00;99.90
33699;DHT22;20032;52.436;13.312;2024-03-22T01:41:43;8.00;99.90
33699;DHT22;20032;52.436;13.312;2024-03-22T01:44:08;8.10;99.90
33699;DHT22;20032;52.436;13.312;2024-03-22T01:46:34;8.00;99.90
33699;DHT22;20032;52.436;13.312;2024-03-22T01:49:00;8.10;99.90
33699;DHT22;20032;52.436;13.312;2024-03-22T01:51:26;8.20;99.90
33699;DHT22;20032;52.436;13.312;2024-03-22T01:53:53;8.10;99.90
33699;DHT22;20032;52.436;13.312;2024-03-22T01:56:19;8.10;99.90
33699;DHT22;20032;52.436;13.312;2024-03-22T01:58:45;8.00;99.90
33699;DHT22;20032;52.436;13.312;2024-03-22T02:01:11;8.00;99.90
33699;DHT22;20032;52.436;13.312;2024-03-22T02:03:36;8.00;99.90
33699;DHT22;20032;52.436;13.312;2024-03-22T02:06:02;8.00;99.90
33699;DHT22;20032;52.436;13.312;2024-03-22T02:08:28;8.10;99.90
33699;DHT22;20032;52.436;13.312;2024-03-22T02:10:54;8.20;99.90
33699;DHT22;20032;52.436;13.312;2024-03-22T02:13:20;8.20;99.90
33699;DHT22;20032;52.436;13.312;2024-03-22T02:15:45;8.30;99.90
33699;DHT22;20032;52.436;13.312;2024-03-22T02:18:11;8.30;99.90
33699;DHT22;20032;52.436;13.312;2024-03-22T02:20:36;8.30;99.90
33699;DHT22;20032;52.436;13.312;2024-03-22T02:23:02;8.40;99.90
33699;DHT22;20032;52.436;13.312;2024-03-22T02:25:27;8.40;99.90
33699;DHT22;20032;52.436;13.312;2024-03-22T02:27:53;8.30;99.90
33699;DHT22;20032;52.436;13.312;2024-03-22T02:30:18;8.40;99.90
33699;DHT22;20032;52.436;13.312;2024-03-22T02:32:44;8.40;99.90
33699;DHT22;20032;52.436;13.312;2024-03-22T02:35:09;8.30;99.90
33699;DHT22;20032;52.436;13.312;2024-03-22T02:37:35;8.30;99.90
33699;DHT22;20032;52.436;13.312;2024-03-22T02:40:00;8.30;99.90
33699;DHT22;20032;52.436;13.312;2024-03-22T02:42:27;8.10;99.90
33699;DHT22;20032;52.436;13.312;2024-03-22T02:44:52;8.30;99.90
33699;DHT22;20032;52.436;13.312;2024-03-22T02:47:18;8.40;99.90
33699;DHT22;20032;52.436;13.312;2024-03-22T02:49:43;8.30;99.90
33699;DHT22;20032;52.436;13.312;2024-03-22T02:52:09;8.30;99.90
33699;DHT22;20032;52.436;13.312;2024-03-22T02:54:34;8.30;99.90
33699;DHT22;20032;52.436;13.312;2024-03-22T02:57:00;8.20;99.90
33699;DHT22;20032;52.436;13.312;2024-03-22T02:59:27;8.20;99.90
33699;DHT22;20032;52.436;13.312;2024-03-22T03:01:52;8.30;99.90
33699;DHT22;20032;52.436;13.312;2024-03-22T03:04:18;8.20;99.90
33699;DHT22;20032;52.436;13.312;2024-03-22T03:06:43;8.20;99.90
33699;DHT22;20032;52.436;13.312;2024-03-22T03:09:11;8.20;99.90
33699;DHT22;20032;52.436;13.312;2024-03-22T03:11:38;8.20;99.90
33699;DHT22;20032;52.436;13.312;2024-03-22T03:14:04;8.40;99.90
33699;DHT22;20032;52.436;13.312;2024-03-22T03:16:30;8.40;99.90
33699;DHT22;20032;52.436;13.312;2024-03-22T03:18:55;8.30;99.90
33699;DHT22;20032;52.436;13.312;2024-03-22T03:21:21;8.20;99.90
33699;DHT22;20032;52.436;13.312;2024-03-22T03:23:46;8.10;99.90
33699;DHT22;20032;52.436;13.312;2024-03-22T03:26:12;8.20;99.90
33699;DHT22;20032;52.436;13.312;2024-03-22T03:28:38;8.20;99.90
33699;DHT22;20032;52.436;13.312;2024-03-22T03:31:03;8.20;99.90
33699;DHT22;20032;52.436;13.312;2024-03-22T03:33:29;8.20;99.90
33699;DHT22;20032;52.436;13.312;2024-03-22T03:35:55;8.30;99.90
33699;DHT22;20032;52.436;13.312;2024-03-22T03:38:20;8.20;99.90
33699;DHT22;20032;52.436;13.312;2024-03-22T03:40:46;8.10;99.90
33699;DHT22;20032;52.436;13.312;2024-03-22T03:43:12;8.10;99.90
33699;DHT22;20032;52.436;13.312;2024-03-22T03:45:37;8.00;99.90
33699;DHT22;20032;52.436;13.312;2024-03-22T03:48:03;7.90;99.90
33699;DHT22;20032;52.436;13.312;2024-03-22T03:50:29;8.00;99.90
33699;DHT22;20032;52.436;13.312;2024-03-22T03:52:54;8.10;99.90
33699;DHT22;20032;52.436;13.312;2024-03-22T03:55:20;8.20;99.90
33699;DHT22;20032;52.436;13.312;2024-03-22T03:57:45;8.20;99.90
33699;DHT22;20032;52.436;13.312;2024-03-22T04:00:12;8.10;99.90
33699;DHT22;20032;52.436;13.312;2024-03-22T04:02:38;8.10;99.90
33699;DHT22;20032;52.436;13.312;2024-03-22T04:05:03;8.10;99.90
33699;DHT22;20032;52.436;13.312;2024-03-22T04:07:29;8.00;99.90
33699;DHT22;20032;52.436;13.312;2024-03-22T04:09:54;8.10;99.90
33699;DHT22;20032;52.436;13.312;2024-03-22T04:12:20;8.20;99.90
33699;DHT22;20032;52.436;13.312;2024-03-22T04:14:45;8.20;99.90
33699;DHT22;20032;52.436;13.312;2024-03-22T04:17:11;8.20;99.90
33699;DHT22;20032;52.436;13.312;2024-03-22T04:19:36;8.20;99.90
33699;DHT22;20032;52.436;13.312;2024-03-22T04:22:02;8.30;99.90
33699;DHT22;20032;52.436;13.312;2024-03-22T04:24:27;8.30;99.90
33699;DHT22;20032;52.436;13.312;2024-03-22T04:26:53;8.40;99.90
33699;DHT22;20032;52.436;13.312;2024-03-22T04:29:18;8.30;99.90
33699;DHT22;20032;52.436;13.312;2024-03-22T04:31:44;8.30;99.90
33699;DHT22;20032;52.436;13.312;2024-03-22T04:34:09;8.20;99.90
33699;DHT22;20032;52.436;13.312;2024-03-22T04:36:35;8.20;99.90
33699;DHT22;20032;52.436;13.312;2024-03-22T04:39:01;8.30;99.90
33699;DHT22;20032;52.436;13.312;2024-03-22T04:41:26;8.40;99.90
33699;DHT22;20032;52.436;13.312;2024-03-22T04:43:52;8.40;99.90
33699;DHT22;20032;52.436;13.312;2024-03-22T04:46:17;8.30;99.90
33699;DHT22;20032;52.436;13.312;2024-03-22T04:48:43;8.40;99.90
33699;DHT22;20032;52.436;13.312;2024-03-22T04:51:08;8.40;99.90
33699;DHT22;20032;52.436;13.312;2024-03-22T04:53:34;8.40;99.90
33699;DHT22;20032;52.436;13.312;2024-03-22T04:55:59;8.40;99.90
33699;DHT22;20032;52.436;13.312;2024-03-22T04:58:24;8.40;99.90
33699;DHT22;20032;52.436;13.312;2024-03-22T05:00:56;8.40;99.90
33699;DHT22;20032;52.436;13.312;2024-03-22T05:03:22;8.40;99.90
33699;DHT22;20032;52.436;13.312;2024-03-22T05:05:49;8.40;99.90
33699;DHT22;20032;52.436;13.312;2024-03-22T05:08:15;8.40;99.90
33699;DHT22;20032;52.436;13.312;2024-03-22T05:10:40;8.50;99.90
33699;DHT22;20032;52.436;13.312;2024-03-22T05:13:06;8.50;99.90
33699;DHT22;20032;52.436;13.312;2024-03-22T05:15:31;8.50;99.90
33699;DHT22;20032;52.436;13.312;2024-03-22T05:17:58;8.40;99.90
33699;DHT22;20032;52.436;13.312;2024-03-22T05:20:23;8.50;99.90
33699;DHT22;20032;52.436;13.312;2024-03-22T05:22:49;8.50;99.90
33699;DHT22;20032;52.436;13.312;2024-03-22T05:25:15;8.50;99.90
33699;DHT22;20032;52.436;13.312;2024-03-22T05:27:42;8.40;99.90
33699;DHT22;20032;52.436;13.312;2024-03-22T05:30:09;8.60;99.90
33699;DHT22;20032;52.436;13.312;2024-03-22T05:32:35;8.50;99.90
33699;DHT22;20032;52.436;13.312;2024-03-22T05:35:00;8.60;99.90
33699;DHT22;20032;52.436;13.312;2024-03-22T05:37:29;8.60;99.90
33699;DHT22;20032;52.436;13.312;2024-03-22T05:39:55;8.50;99.90
33699;DHT22;20032;52.436;13.312;2024-03-22T05:42:20;8.40;99.90
33699;DHT22;20032;52.436;13.312;2024-03-22T05:44:46;8.50;99.90
33699;DHT22;20032;52.436;13.312;2024-03-22T05:47:11;8.60;99.90
33699;DHT22;20032;52.436;13.312;2024-03-22T05:49:37;8.60;99.90
33699;DHT22;20032;52.436;13.312;2024-03-22T05:52:03;8.60;99.90
33699;DHT22;20032;52.436;13.312;2024-03-22T05:54:28;8.60;99.90
33699;DHT22;20032;52.436;13.312;2024-03-22T05:56:54;8.60;99.90
33699;DHT22;20032;52.436;13.312;2024-03-22T05:59:20;8.50;99.90
33699;DHT22;20032;52.436;13.312;2024-03-22T06:01:45;8.50;99.90
33699;DHT22;20032;52.436;13.312;2024-03-22T06:04:11;8.50;99.90
33699;DHT22;20032;52.436;13.312;2024-03-22T06:06:36;8.50;99.90
33699;DHT22;20032;52.436;13.312;2024-03-22T06:09:03;8.60;99.90
33699;DHT22;20032;52.436;13.312;2024-03-22T06:11:30;8.70;99.90
33699;DHT22;20032;52.436;13.312;2024-03-22T06:13:56;8.70;99.90
33699;DHT22;20032;52.436;13.312;2024-03-22T06:16:21;8.70;99.90
33699;DHT22;20032;52.436;13.312;2024-03-22T06:18:47;8.70;99.90
33699;DHT22;20032;52.436;13.312;2024-03-22T06:21:13;8.70;99.90
33699;DHT22;20032;52.436;13.312;2024-03-22T06:23:40;8.70;99.90
33699;DHT22;20032;52.436;13.312;2024-03-22T06:26:06;8.70;99.90
33699;DHT22;20032;52.436;13.312;2024-03-22T06:28:32;8.60;99.90
33699;DHT22;20032;52.436;13.312;2024-03-22T06:30:57;8.70;99.90
33699;DHT22;20032;52.436;13.312;2024-03-22T06:33:23;8.80;99.90
33699;DHT22;20032;52.436;13.312;2024-03-22T06:35:48;8.90;99.90
33699;DHT22;20032;52.436;13.312;2024-03-22T06:38:14;8.80;99.90
33699;DHT22;20032;52.436;13.312;2024-03-22T06:40:40;8.90;99.90
33699;DHT22;20032;52.436;13.312;2024-03-22T06:43:06;8.90;99.90
33699;DHT22;20032;52.436;13.312;2024-03-22T06:45:31;8.90;99.90
33699;DHT22;20032;52.436;13.312;2024-03-22T06:47:57;9.00;99.90
33699;DHT22;20032;52.436;13.312;2024-03-22T06:50:23;9.00;99.90
33699;DHT22;20032;52.436;13.312;2024-03-22T06:52:51;9.00;99.90
33699;DHT22;20032;52.436;13.312;2024-03-22T06:55:19;9.00;99.90
33699;DHT22;20032;52.436;13.312;2024-03-22T06:57:46;9.20;99.90
33699;DHT22;20032;52.436;13.312;2024-03-22T07:00:14;9.20;99.90
33699;DHT22;20032;52.436;13.312;2024-03-22T07:02:40;9.20;99.90
33699;DHT22;20032;52.436;13.312;2024-03-22T07:05:09;9.20;99.90
33699;DHT22;20032;52.436;13.312;2024-03-22T07:07:35;9.20;99.90
33699;DHT22;20032;52.436;13.312;2024-03-22T07:10:02;9.20;99.90
33699;DHT22;20032;52.436;13.312;2024-03-22T07:12:27;9.30;99.90
33699;DHT22;20032;52.436;13.312;2024-03-22T07:14:53;9.30;99.90
33699;DHT22;20032;52.436;13.312;2024-03-22T07:17:20;9.30;99.90
33699;DHT22;20032;52.436;13.312;2024-03-22T07:19:50;9.40;99.90
33699;DHT22;20032;52.436;13.312;2024-03-22T07:22:17;9.50;99.90
33699;DHT22;20032;52.436;13.312;2024-03-22T07:24:42;9.40;99.90
33699;DHT22;20032;52.436;13.312;2024-03-22T07:27:10;9.40;99.90
33699;DHT22;20032;52.436;13.312;2024-03-22T07:29:37;9.50;99.90
33699;DHT22;20032;52.436;13.312;2024-03-22T07:32:03;9.50;99.90
33699;DHT22;20032;52.436;13.312;2024-03-22T07:34:28;9.50;99.90
33699;DHT22;20032;52.436;13.312;2024-03-22T07:36:54;9.50;99.90
33699;DHT22;20032;52.436;13.312;2024-03-22T07:39:20;9.50;99.90
33699;DHT22;20032;52.436;13.312;2024-03-22T07:41:45;9.50;99.90
33699;DHT22;20032;52.436;13.312;2024-03-22T07:44:11;9.50;99.90
33699;DHT22;20032;52.436;13.312;2024-03-22T07:46:36;9.50;99.90
33699;DHT22;20032;52.436;13.312;2024-03-22T07:49:02;9.50;99.90
33699;DHT22;20032;52.436;13.312;2024-03-22T07:51:29;9.60;99.90
33699;DHT22;20032;52.436;13.312;2024-03-22T07:53:55;9.60;99.90
33699;DHT22;20032;52.436;13.312;2024-03-22T07:56:20;9.50;99.90
33699;DHT22;20032;52.436;13.312;2024-03-22T07:58:46;9.50;99.90
33699;DHT22;20032;52.436;13.312;2024-03-22T08:01:12;9.60;99.90
33699;DHT22;20032;52.436;13.312;2024-03-22T08:03:37;9.70;99.90
33699;DHT22;20032;52.436;13.312;2024-03-22T08:06:03;9.70;99.90
33699;DHT22;20032;52.436;13.312;2024-03-22T08:08:29;9.80;99.90
33699;DHT22;20032;52.436;13.312;2024-03-22T08:10:55;9.90;99.90
33699;DHT22;20032;52.436;13.312;2024-03-22T08:13:20;9.90;99.90
33699;DHT22;20032;52.436;13.312;2024-03-22T08:15:46;9.90;99.90
33699;DHT22;20032;52.436;13.312;2024-03-22T08:18:12;10.00;99.90
33699;DHT22;20032;52.436;13.312;2024-03-22T08:20:38;10.00;99.90
33699;DHT22;20032;52.436;13.312;2024-03-22T08:23:05;10.10;99.90
33699;DHT22;20032;52.436;13.312;2024-03-22T08:25:30;10.00;99.90
33699;DHT22;20032;52.436;13.312;2024-03-22T08:27:56;10.10;99.90
33699;DHT22;20032;52.436;13.312;2024-03-22T08:30:22;10.20;99.90
33699;DHT22;20032;52.436;13.312;2024-03-22T08:32:48;10.10;99.90
33699;DHT22;20032;52.436;13.312;2024-03-22T08:35:13;10.20;99.90
33699;DHT22;20032;52.436;13.312;2024-03-22T08:37:39;10.20;99.90
33699;DHT22;20032;52.436;13.312;2024-03-22T08:40:05;10.20;99.90
33699;DHT22;20032;52.436;13.312;2024-03-22T08:42:31;10.30;99.90
33699;DHT22;20032;52.436;13.312;2024-03-22T08:44:57;10.30;99.90
33699;DHT22;20032;52.436;13.312;2024-03-22T08:47:23;10.40;99.90
33699;DHT22;20032;52.436;13.312;2024-03-22T08:49:48;10.50;99.90
33699;DHT22;20032;52.436;13.312;2024-03-22T08:52:14;10.40;99.90
33699;DHT22;20032;52.436;13.312;2024-03-22T08:54:40;10.40;99.90
33699;DHT22;20032;52.436;13.312;2024-03-22T08:57:05;10.40;99.90
33699;DHT22;20032;52.436;13.312;2024-03-22T08:59:32;10.40;99.90
33699;DHT22;20032;52.436;13.312;2024-03-22T09:01:58;10.40;99.90
33699;DHT22;20032;52.436;13.312;2024-03-22T09:04:24;10.50;99.90
33699;DHT22;20032;52.436;13.312;2024-03-22T09:06:50;10.60;99.90
33699;DHT22;20032;52.436;13.312;2024-03-22T09:09:16;10.60;99.90
33699;DHT22;20032;52.436;13.312;2024-03-22T09:11:42;10.60;99.90
33699;DHT22;20032;52.436;13.312;2024-03-22T09:14:07;10.70;99.90
33699;DHT22;20032;52.436;13.312;2024-03-22T09:16:33;10.80;99.90
33699;DHT22;20032;52.436;13.312;2024-03-22T09:18:58;10.80;99.90
33699;DHT22;20032;52.436;13.312;2024-03-22T09:21:24;10.90;99.90
33699;DHT22;20032;52.436;13.312;2024-03-22T09:23:50;11.00;99.90
33699;DHT22;20032;52.436;13.312;2024-03-22T09:26:15;11.00;99.90
33699;DHT22;20032;52.436;13.312;2024-03-22T09:28:41;11.20;99.90
33699;DHT22;20032;52.436;13.312;2024-03-22T09:31:07;11.20;99.90
33699;DHT22;20032;52.436;13.312;2024-03-22T09:33:34;11.30;99.90
33699;DHT22;20032;52.436;13.312;2024-03-22T09:36:00;11.30;99.90
33699;DHT22;20032;52.436;13.312;2024-03-22T09:38:26;11.30;99.90
33699;DHT22;20032;52.436;13.312;2024-03-22T09:40:51;11.30;99.90
33699;DHT22;20032;52.436;13.312;2024-03-22T09:43:20;11.40;99.90
33699;DHT22;20032;52.436;13.312;2024-03-22T09:45:47;11.40;99.90
33699;DHT22;20032;52.436;13.312;2024-03-22T09:48:14;11.40;99.90
33699;DHT22;20032;52.436;13.312;2024-03-22T09:50:41;11.40;99.90
33699;DHT22;20032;52.436;13.312;2024-03-22T09:53:06;11.40;99.90
33699;DHT22;20032;52.436;13.312;2024-03-22T09:55:33;11.40;99.90
33699;DHT22;20032;52.436;13.312;2024-03-22T09:58:02;11.30;99.90
33699;DHT22;20032;52.436;13.312;2024-03-22T10:00:29;11.30;99.90
33699;DHT22;20032;52.436;13.312;2024-03-22T10:02:56;11.40;99.90
33699;DHT22;20032;52.436;13.312;2024-03-22T10:05:22;11.60;99.90
33699;DHT22;20032;52.436;13.312;2024-03-22T10:07:48;11.60;99.90
33699;DHT22;20032;52.436;13.312;2024-03-22T10:10:15;11.50;99.90
33699;DHT22;20032;52.436;13.312;2024-03-22T10:12:44;11.50;99.90
33699;DHT22;20032;52.436;13.312;2024-03-22T10:15:09;11.60;99.90
33699;DHT22;20032;52.436;13.312;2024-03-22T10:17:36;11.80;99.90
33699;DHT22;20032;52.436;13.312;2024-03-22T10:20:03;11.90;99.90
33699;DHT22;20032;52.436;13.312;2024-03-22T10:22:29;12.10;99.90
33699;DHT22;20032;52.436;13.312;2024-03-22T10:24:55;12.10;99.90
33699;DHT22;20032;52.436;13.312;2024-03-22T10:27:27;12.00;99.90
33699;DHT22;20032;52.436;13.312;2024-03-22T10:29:54;12.10;99.90
33699;DHT22;20032;52.436;13.312;2024-03-22T10:32:20;12.20;99.90
33699;DHT22;20032;52.436;13.312;2024-03-22T10:34:46;12.30;99.90
33699;DHT22;20032;52.436;13.312;2024-03-22T10:37:15;12.30;99.90
33699;DHT22;20032;52.436;13.312;2024-03-22T10:39:42;12.40;99.90
33699;DHT22;20032;52.436;13.312;2024-03-22T10:42:10;12.50;99.90
33699;DHT22;20032;52.436;13.312;2024-03-22T10:44:36;12.40;99.90
33699;DHT22;20032;52.436;13.312;2024-03-22T10:47:04;12.60;99.90
33699;DHT22;20032;52.436;13.312;2024-03-22T10:49:36;12.90;99.90
33699;DHT22;20032;52.436;13.312;2024-03-22T10:52:04;13.10;99.90
33699;DHT22;20032;52.436;13.312;2024-03-22T10:54:36;13.30;99.90
33699;DHT22;20032;52.436;13.312;2024-03-22T10:57:05;13.40;99.90
33699;DHT22;20032;52.436;13.312;2024-03-22T10:59:34;13.50;99.90
33699;DHT22;20032;52.436;13.312;2024-03-22T11:02:03;13.50;99.90
33699;DHT22;20032;52.436;13.312;2024-03-22T11:04:30;13.60;99.90
33699;DHT22;20032;52.436;13.312;2024-03-22T11:06:57;13.60;99.90
33699;DHT22;20032;52.436;13.312;2024-03-22T11:09:23;13.50;99.90
33699;DHT22;20032;52.436;13.312;2024-03-22T11:11:52;13.40;99.90
33699;DHT22;20032;52.436;13.312;2024-03-22T11:14:18;13.20;99.90
33699;DHT22;20032;52.436;13.312;2024-03-22T11:16:44;13.10;99.90
33699;DHT22;20032;52.436;13.312;2024-03-22T11:19:10;13.10;99.90
33699;DHT22;20032;52.436;13.312;2024-03-22T11:21:36;13.00;99.90
33699;DHT22;20032;52.436;13.312;2024-03-22T11:24:02;13.00;99.90
33699;DHT22;20032;52.436;13.312;2024-03-22T11:26:27;13.00;99.90
33699;DHT22;20032;52.436;13.312;2024-03-22T11:28:53;13.10;99.90
33699;DHT22;20032;52.436;13.312;2024-03-22T11:31:18;13.10;99.90
33699;DHT22;20032;52.436;13.312;2024-03-22T11:33:48;13.10;99.90
33699;DHT22;20032;52.436;13.312;2024-03-22T11:36:14;13.00;99.90
33699;DHT22;20032;52.436;13.312;2024-03-22T11:38:39;13.00;99.90
33699;DHT22;20032;52.436;13.312;2024-03-22T11:41:05;13.00;99.90
33699;DHT22;20032;52.436;13.312;2024-03-22T11:43:32;13.00;99.90
33699;DHT22;20032;52.436;13.312;2024-03-22T11:45:57;13.10;99.90
33699;DHT22;20032;52.436;13.312;2024-03-22T11:48:23;13.10;99.90
33699;DHT22;20032;52.436;13.312;2024-03-22T11:50:49;13.10;99.90
33699;DHT22;20032;52.436;13.312;2024-03-22T11:53:16;13.00;99.90
33699;DHT22;20032;52.436;13.312;2024-03-22T11:55:42;13.00;99.90
33699;DHT22;20032;52.436;13.312;2024-03-22T11:58:09;12.90;99.90
33699;DHT22;20032;52.436;13.312;2024-03-22T12:00:36;12.90;99.90
33699;DHT22;20032;52.436;13.312;2024-03-22T12:03:04;12.90;99.90
33699;DHT22;20032;52.436;13.312;2024-03-22T12:05:31;12.80;99.90
33699;DHT22;20032;52.436;13.312;2024-03-22T12:07:57;12.80;99.90
33699;DHT22;20032;52.436;13.312;2024-03-22T12:10:22;12.70;99.90
33699;DHT22;20032;52.436;13.312;2024-03-22T12:12:48;12.70;99.90
33699;DHT22;20032;52.436;13.312;2024-03-22T12:15:13;12.70;99.90
33699;DHT22;20032;52.436;13.312;2024-03-22T12:17:39;12.60;99.90
33699;DHT22;20032;52.436;13.312;2024-03-22T12:20:08;12.60;99.90
33699;DHT22;20032;52.436;13.312;2024-03-22T12:22:34;12.60;99.90
33699;DHT22;20032;52.436;13.312;2024-03-22T12:25:00;12.60;99.90
33699;DHT22;20032;52.436;13.312;2024-03-22T12:27:25;12.60;99.90
33699;DHT22;20032;52.436;13.312;2024-03-22T12:29:51;12.50;99.90
33699;DHT22;20032;52.436;13.312;2024-03-22T12:32:16;12.50;99.90
33699;DHT22;20032;52.436;13.312;2024-03-22T12:34:42;12.50;99.90
33699;DHT22;20032;52.436;13.312;2024-03-22T12:37:08;12.40;99.90
33699;DHT22;20032;52.436;13.312;2024-03-22T12:39:35;12.40;99.90
33699;DHT22;20032;52.436;13.312;2024-03-22T12:42:01;12.40;99.90
33699;DHT22;20032;52.436;13.312;2024-03-22T12:44:28;12.40;99.90
33699;DHT22;20032;52.436;13.312;2024-03-22T12:46:54;12.30;99.90
33699;DHT22;20032;52.436;13.312;2024-03-22T12:49:20;12.20;99.90
33699;DHT22;20032;52.436;13.312;2024-03-22T12:51:45;12.10;99.90
33699;DHT22;20032;52.436;13.312;2024-03-22T12:54:11;12.00;99.90
33699;DHT22;20032;52.436;13.312;2024-03-22T12:56:37;12.00;99.90
33699;DHT22;20032;52.436;13.312;2024-03-22T12:59:04;12.00;99.90
33699;DHT22;20032;52.436;13.312;2024-03-22T13:01:30;12.00;99.90
33699;DHT22;20032;52.436;13.312;2024-03-22T13:03:56;11.90;99.90
33699;DHT22;20032;52.436;13.312;2024-03-22T13:06:22;11.80;99.90
33699;DHT22;20032;52.436;13.312;2024-03-22T13:08:47;11.70;99.90
33699;DHT22;20032;52.436;13.312;2024-03-22T13:11:13;11.70;99.90
33699;DHT22;20032;52.436;13.312;2024-03-22T13:13:39;11.70;99.90
33699;DHT22;20032;52.436;13.312;2024-03-22T13:16:05;11.70;99.90
33699;DHT22;20032;52.436;13.312;2024-03-22T13:18:32;11.60;99.90
33699;DHT22;20032;52.436;13.312;2024-03-22T13:20:57;11.60;99.90
33699;DHT22;20032;52.436;13.312;2024-03-22T13:23:23;11.70;99.90
33699;DHT22;20032;52.436;13.312;2024-03-22T13:25:49;11.70;99.90
33699;DHT22;20032;52.436;13.312;2024-03-22T13:28:15;11.70;99.90
33699;DHT22;20032;52.436;13.312;2024-03-22T13:30:45;11.80;99.90
33699;DHT22;20032;52.436;13.312;2024-03-22T13:33:11;11.70;99.90
33699;DHT22;20032;52.436;13.312;2024-03-22T13:35:36;11.80;99.90
33699;DHT22;20032;52.436;13.312;2024-03-22T13:38:02;11.80;99.90
33699;DHT22;20032;52.436;13.312;2024-03-22T13:40:27;11.90;99.90
33699;DHT22;20032;52.436;13.312;2024-03-22T13:42:54;11.90;99.90
33699;DHT22;20032;52.436;13.312;2024-03-22T13:45:19;12.00;99.90
33699;DHT22;20032;52.436;13.312;2024-03-22T13:47:45;12.00;99.90
33699;DHT22;20032;52.436;13.312;2024-03-22T13:50:11;12.00;99.90
33699;DHT22;20032;52.436;13.312;2024-03-22T13:52:37;12.10;99.90
33699;DHT22;20032;52.436;13.312;2024-03-22T13:55:03;12.10;99.90
33699;DHT22;20032;52.436;13.312;2024-03-22T13:57:30;12.10;99.90
33699;DHT22;20032;52.436;13.312;2024-03-22T13:59:55;12.10;99.90
33699;DHT22;20032;52.436;13.312;2024-03-22T14:02:21;12.10;99.90
33699;DHT22;20032;52.436;13.312;2024-03-22T14:04:47;12.00;99.90
33699;DHT22;20032;52.436;13.312;2024-03-22T14:07:12;12.10;99.90
33699;DHT22;20032;52.436;13.312;2024-03-22T14:09:38;12.00;99.90
33699;DHT22;20032;52.436;13.312;2024-03-22T14:12:05;12.00;99.90
33699;DHT22;20032;52.436;13.312;2024-03-22T14:14:30;12.10;99.90
33699;DHT22;20032;52.436;13.312;2024-03-22T14:16:55;12.10;99.90
33699;DHT22;20032;52.436;13.312;2024-03-22T14:19:21;12.10;99.90
33699;DHT22;20032;52.436;13.312;2024-03-22T14:21:47;12.00;99.90
33699;DHT22;20032;52.436;13.312;2024-03-22T14:24:12;11.90;99.90
33699;DHT22;20032;52.436;13.312;2024-03-22T14:26:38;11.80;99.90
33699;DHT22;20032;52.436;13.312;2024-03-22T14:29:09;11.90;99.90
33699;DHT22;20032;52.436;13.312;2024-03-22T14:31:35;11.80;99.90
33699;DHT22;20032;52.436;13.312;2024-03-22T14:34:01;11.90;99.90
33699;DHT22;20032;52.436;13.312;2024-03-22T14:36:26;12.00;99.90
33699;DHT22;20032;52.436;13.312;2024-03-22T14:38:52;11.90;99.90
33699;DHT22;20032;52.436;13.312;2024-03-22T14:41:17;12.00;99.90
33699;DHT22;20032;52.436;13.312;2024-03-22T14:43:43;12.00;99.90
33699;DHT22;20032;52.436;13.312;2024-03-22T14:46:10;12.00;99.90
33699;DHT22;20032;52.436;13.312;2024-03-22T14:48:36;12.00;99.90
33699;DHT22;20032;52.436;13.312;2024-03-22T14:51:02;12.00;99.90
33699;DHT22;20032;52.436;13.312;2024-03-22T14:53:28;12.00;99.90
33699;DHT22;20032;52.436;13.312;2024-03-22T14:55:56;12.10;99.90
33699;DHT22;20032;52.436;13.312;2024-03-22T14:58:28;12.00;99.90
33699;DHT22;20032;52.436;13.312;2024-03-22T15:00:57;12.00;99.90
33699;DHT22;20032;52.436;13.312;2024-03-22T15:03:23;11.90;99.90
33699;DHT22;20032;52.436;13.312;2024-03-22T15:05:51;11.90;99.90
33699;DHT22;20032;52.436;13.312;2024-03-22T15:08:17;11.90;99.90
33699;DHT22;20032;52.436;13.312;2024-03-22T15:10:43;11.90;99.90
33699;DHT22;20032;52.436;13.312;2024-03-22T15:13:09;11.90;99.90
33699;DHT22;20032;52.436;13.312;2024-03-22T15:15:35;11.90;99.90
33699;DHT22;20032;52.436;13.312;2024-03-22T15:18:01;11.80;99.90